sensor_id;sensor_type;location;lat;lon;timestamp;pressure;altitude;pressure_sealevel;temperature;humidity
13612;BME280;6877;51.436;6.774;2023-03-01T00:01:49;102636.06;;;-3.23;84.57
13612;BME280;6877;51.436;6.774;2023-03-01T00:04:20;102636.50;;;-3.29;84.98
13612;BME280;6877;51.436;6.774;2023-03-01T00:06:51;102638.78;;;-3.33;85.30
13612;BME280;6877;51.436;6.774;2023-03-01T00:09:23;102637.06;;;-3.21;85.99
13612;BME280;6877;51.436;6.774;2023-03-01T00:11:49;102639.06;;;-3.04;86.23
13612;BME280;6877;51.436;6.774;2023-03-01T00:14:16;102633.88;;;-2.92;85.77
13612;BME280;6877;51.436;6.774;2023-03-01T00:16:44;102636.94;;;-2.84;85.69
13612;BME280;6877;51.436;6.774;2023-03-01T00:19:17;102641.28;;;-2.83;85.74
13612;BME280;6877;51.436;6.774;2023-03-01T00:21:44;102642.84;;;-2.85;85.36
13612;BME280;6877;51.436;6.774;2023-03-01T00:24:16;102639.06;;;-2.90;85.48
13612;BME280;6877;51.436;6.774;2023-03-01T00:26:43;102627.75;;;-2.94;85.67
13612;BME280;6877;51.436;6.774;2023-03-01T00:29:14;102628.28;;;-2.86;86.04
13612;BME280;6877;51.436;6.774;2023-03-01T00:31:41;102626.53;;;-2.74;85.54
13612;BME280;6877;51.436;6.774;2023-03-01T00:34:07;102619.41;;;-2.78;85.03
13612;BME280;6877;51.436;6.774;2023-03-01T00:36:36;102619.38;;;-2.91;84.82
13612;BME280;6877;51.436;6.774;2023-03-01T00:39:04;102614.53;;;-3.00;85.38
13612;BME280;6877;51.436;6.774;2023-03-01T00:41:33;102616.38;;;-3.11;85.94
13612;BME280;6877;51.436;6.774;2023-03-01T00:44:00;102616.88;;;-3.16;86.56
13612;BME280;6877;51.436;6.774;2023-03-01T00:46:27;102607.50;;;-3.16;86.44
13612;BME280;6877;51.436;6.774;2023-03-01T00:48:54;102609.50;;;-3.12;86.50
13612;BME280;6877;51.436;6.774;2023-03-01T00:51:26;102611.06;;;-3.14;86.28
13612;BME280;6877;51.436;6.774;2023-03-01T00:54:01;102609.50;;;-3.12;86.67
13612;BME280;6877;51.436;6.774;2023-03-01T00:56:33;102602.09;;;-3.20;86.59
13612;BME280;6877;51.436;6.774;2023-03-01T00:59:05;102594.25;;;-3.35;86.80
13612;BME280;6877;51.436;6.774;2023-03-01T01:01:43;102602.31;;;-3.42;87.05
13612;BME280;6877;51.436;6.774;2023-03-01T01:04:12;102590.81;;;-3.61;87.26
13612;BME280;6877;51.436;6.774;2023-03-01T01:06:44;102597.44;;;-3.76;87.10
13612;BME280;6877;51.436;6.774;2023-03-01T01:09:13;102587.16;;;-3.89;87.77
13612;BME280;6877;51.436;6.774;2023-03-01T01:11:45;102589.84;;;-4.00;87.95
13612;BME280;6877;51.436;6.774;2023-03-01T01:14:18;102587.22;;;-4.13;88.00
13612;BME280;6877;51.436;6.774;2023-03-01T01:16:45;102585.56;;;-4.12;89.35
13612;BME280;6877;51.436;6.774;2023-03-01T01:19:12;102578.16;;;-3.96;90.29
13612;BME280;6877;51.436;6.774;2023-03-01T01:21:44;102573.91;;;-3.84;90.29
13612;BME280;6877;51.436;6.774;2023-03-01T01:24:16;102573.28;;;-3.68;90.12
13612;BME280;6877;51.436;6.774;2023-03-01T01:26:47;102573.13;;;-3.58;89.76
13612;BME280;6877;51.436;6.774;2023-03-01T01:29:14;102568.91;;;-3.44;89.21
13612;BME280;6877;51.436;6.774;2023-03-01T01:31:46;102563.13;;;-3.41;88.82
13612;BME280;6877;51.436;6.774;2023-03-01T01:34:21;102554.72;;;-3.52;88.44
13612;BME280;6877;51.436;6.774;2023-03-01T01:36:49;102549.91;;;-3.73;88.44
13612;BME280;6877;51.436;6.774;2023-03-01T01:39:16;102547.56;;;-3.94;88.46
13612;BME280;6877;51.436;6.774;2023-03-01T01:41:42;102555.75;;;-4.12;89.02
13612;BME280;6877;51.436;6.774;2023-03-01T01:46:46;102554.16;;;-4.47;89.70
13612;BME280;6877;51.436;6.774;2023-03-01T01:49:18;102544.81;;;-4.58;90.41
13612;BME280;6877;51.436;6.774;2023-03-01T01:52:09;102544.81;;;-4.58;90.84
13612;BME280;6877;51.436;6.774;2023-03-01T01:55:05;102538.59;;;-4.73;90.53
13612;BME280;6877;51.436;6.774;2023-03-01T01:57:40;102534.41;;;-4.73;91.52
13612;BME280;6877;51.436;6.774;2023-03-01T02:00:22;102535.59;;;-4.56;92.30
13612;BME280;6877;51.436;6.774;2023-03-01T02:02:59;102538.31;;;-4.29;92.83
13612;BME280;6877;51.436;6.774;2023-03-01T02:07:59;102539.41;;;-4.14;90.91
13612;BME280;6877;51.436;6.774;2023-03-01T02:10:33;102548.06;;;-4.12;91.44
13612;BME280;6877;51.436;6.774;2023-03-01T02:13:06;102553.38;;;-3.97;91.57
13612;BME280;6877;51.436;6.774;2023-03-01T02:15:34;102551.28;;;-3.78;91.15
13612;BME280;6877;51.436;6.774;2023-03-01T02:18:02;102554.81;;;-3.76;90.37
13612;BME280;6877;51.436;6.774;2023-03-01T02:20:34;102553.19;;;-3.75;90.72
13612;BME280;6877;51.436;6.774;2023-03-01T02:23:07;102532.00;;;-3.73;90.66
13612;BME280;6877;51.436;6.774;2023-03-01T02:25:40;102526.81;;;-3.74;90.41
13612;BME280;6877;51.436;6.774;2023-03-01T02:30:41;102524.06;;;-3.64;90.41
13612;BME280;6877;51.436;6.774;2023-03-01T02:33:35;102524.66;;;-3.68;90.18
13612;BME280;6877;51.436;6.774;2023-03-01T02:36:10;102520.91;;;-3.73;90.44
13612;BME280;6877;51.436;6.774;2023-03-01T02:38:42;102516.38;;;-3.77;90.44
13612;BME280;6877;51.436;6.774;2023-03-01T02:41:16;102520.84;;;-3.86;90.53
13612;BME280;6877;51.436;6.774;2023-03-01T02:43:48;102523.03;;;-3.79;91.04
13612;BME280;6877;51.436;6.774;2023-03-01T02:46:20;102520.09;;;-3.72;90.66
13612;BME280;6877;51.436;6.774;2023-03-01T02:48:59;102520.44;;;-3.67;91.08
13612;BME280;6877;51.436;6.774;2023-03-01T02:56:29;102524.69;;;-3.55;90.42
13612;BME280;6877;51.436;6.774;2023-03-01T02:58:56;102528.53;;;-3.61;90.45
13612;BME280;6877;51.436;6.774;2023-03-01T03:01:27;102528.66;;;-3.46;90.29
13612;BME280;6877;51.436;6.774;2023-03-01T03:04:17;102532.41;;;-3.41;89.83
13612;BME280;6877;51.436;6.774;2023-03-01T03:06:50;102525.72;;;-3.39;89.53
13612;BME280;6877;51.436;6.774;2023-03-01T03:09:22;102531.25;;;-3.33;89.25
13612;BME280;6877;51.436;6.774;2023-03-01T03:11:53;102525.88;;;-3.24;88.91
13612;BME280;6877;51.436;6.774;2023-03-01T03:14:20;102523.19;;;-3.13;88.62
13612;BME280;6877;51.436;6.774;2023-03-01T03:16:51;102516.59;;;-3.09;87.67
13612;BME280;6877;51.436;6.774;2023-03-01T03:19:19;102528.84;;;-3.05;87.75
13612;BME280;6877;51.436;6.774;2023-03-01T03:21:45;102519.28;;;-3.08;87.36
13612;BME280;6877;51.436;6.774;2023-03-01T03:24:17;102517.59;;;-3.07;87.35
13612;BME280;6877;51.436;6.774;2023-03-01T03:26:44;102514.44;;;-3.16;87.88
13612;BME280;6877;51.436;6.774;2023-03-01T03:29:10;102520.22;;;-3.19;88.00
13612;BME280;6877;51.436;6.774;2023-03-01T03:31:42;102514.69;;;-3.25;88.36
13612;BME280;6877;51.436;6.774;2023-03-01T03:34:13;102515.78;;;-3.35;88.27
13612;BME280;6877;51.436;6.774;2023-03-01T03:36:55;102516.06;;;-3.43;88.71
13612;BME280;6877;51.436;6.774;2023-03-01T03:39:28;102509.53;;;-3.52;89.30
13612;BME280;6877;51.436;6.774;2023-03-01T03:42:00;102508.34;;;-3.57;89.57
13612;BME280;6877;51.436;6.774;2023-03-01T03:44:32;102506.00;;;-3.54;89.86
13612;BME280;6877;51.436;6.774;2023-03-01T03:46:58;102499.38;;;-3.63;90.08
13612;BME280;6877;51.436;6.774;2023-03-01T03:49:30;102499.06;;;-3.68;90.45
13612;BME280;6877;51.436;6.774;2023-03-01T03:51:56;102503.19;;;-3.70;90.45
13612;BME280;6877;51.436;6.774;2023-03-01T03:54:23;102501.44;;;-3.71;90.88
13612;BME280;6877;51.436;6.774;2023-03-01T03:56:54;102494.72;;;-3.69;91.19
13612;BME280;6877;51.436;6.774;2023-03-01T03:59:21;102497.59;;;-3.64;90.98
13612;BME280;6877;51.436;6.774;2023-03-01T04:01:52;102486.50;;;-3.65;90.89
13612;BME280;6877;51.436;6.774;2023-03-01T04:04:18;102487.38;;;-3.64;90.69
13612;BME280;6877;51.436;6.774;2023-03-01T04:06:50;102485.19;;;-3.71;91.06
13612;BME280;6877;51.436;6.774;2023-03-01T04:09:16;102476.31;;;-3.77;91.44
13612;BME280;6877;51.436;6.774;2023-03-01T04:11:42;102472.47;;;-3.83;91.68
13612;BME280;6877;51.436;6.774;2023-03-01T04:14:14;102469.09;;;-3.82;92.05
13612;BME280;6877;51.436;6.774;2023-03-01T04:16:45;102462.09;;;-3.85;92.06
13612;BME280;6877;51.436;6.774;2023-03-01T04:19:16;102463.56;;;-3.88;91.63
13612;BME280;6877;51.436;6.774;2023-03-01T04:21:43;102471.63;;;-3.96;91.99
13612;BME280;6877;51.436;6.774;2023-03-01T04:24:14;102470.06;;;-3.93;92.45
13612;BME280;6877;51.436;6.774;2023-03-01T04:26:45;102467.41;;;-3.95;92.32
13612;BME280;6877;51.436;6.774;2023-03-01T04:29:17;102469.28;;;-3.92;92.50
13612;BME280;6877;51.436;6.774;2023-03-01T04:31:48;102468.81;;;-3.87;92.55
13612;BME280;6877;51.436;6.774;2023-03-01T04:34:15;102469.28;;;-3.92;92.38
13612;BME280;6877;51.436;6.774;2023-03-01T04:36:41;102467.84;;;-4.01;92.86
13612;BME280;6877;51.436;6.774;2023-03-01T04:39:13;102473.38;;;-3.94;93.01
13612;BME280;6877;51.436;6.774;2023-03-01T04:41:39;102475.28;;;-3.92;92.77
13612;BME280;6877;51.436;6.774;2023-03-01T04:44:07;102473.38;;;-3.94;93.05
13612;BME280;6877;51.436;6.774;2023-03-01T04:46:35;102477.53;;;-3.97;92.83
13612;BME280;6877;51.436;6.774;2023-03-01T04:49:06;102472.22;;;-4.00;92.85
13612;BME280;6877;51.436;6.774;2023-03-01T04:51:38;102476.22;;;-4.03;93.08
13612;BME280;6877;51.436;6.774;2023-03-01T04:54:04;102470.78;;;-4.08;93.13
13612;BME280;6877;51.436;6.774;2023-03-01T04:56:39;102473.94;;;-4.12;93.61
13612;BME280;6877;51.436;6.774;2023-03-01T04:59:06;102469.78;;;-4.10;93.60
13612;BME280;6877;51.436;6.774;2023-03-01T05:01:39;102469.41;;;-4.16;93.81
13612;BME280;6877;51.436;6.774;2023-03-01T05:04:05;102467.72;;;-4.15;94.31
13612;BME280;6877;51.436;6.774;2023-03-01T05:06:31;102465.03;;;-4.17;94.01
13612;BME280;6877;51.436;6.774;2023-03-01T05:08:59;102459.63;;;-4.22;94.06
13612;BME280;6877;51.436;6.774;2023-03-01T05:11:30;102457.06;;;-4.22;94.50
13612;BME280;6877;51.436;6.774;2023-03-01T05:14:03;102462.50;;;-4.17;94.27
13612;BME280;6877;51.436;6.774;2023-03-01T05:16:29;102459.47;;;-4.11;93.86
13612;BME280;6877;51.436;6.774;2023-03-01T05:19:03;102455.81;;;-4.15;94.19
13612;BME280;6877;51.436;6.774;2023-03-01T05:21:43;102453.16;;;-4.16;94.00
13612;BME280;6877;51.436;6.774;2023-03-01T05:24:29;102455.81;;;-4.15;93.91
13612;BME280;6877;51.436;6.774;2023-03-01T05:26:55;102447.34;;;-4.14;93.95
13612;BME280;6877;51.436;6.774;2023-03-01T05:29:28;102445.47;;;-4.16;94.00
13612;BME280;6877;51.436;6.774;2023-03-01T05:31:58;102447.16;;;-4.17;93.85
13612;BME280;6877;51.436;6.774;2023-03-01T05:34:32;102445.19;;;-4.21;93.93
13612;BME280;6877;51.436;6.774;2023-03-01T05:36:59;102440.06;;;-4.21;94.41
13612;BME280;6877;51.436;6.774;2023-03-01T05:39:27;102431.81;;;-4.17;94.11
13612;BME280;6877;51.436;6.774;2023-03-01T05:41:55;102440.06;;;-4.21;93.86
13612;BME280;6877;51.436;6.774;2023-03-01T05:44:23;102439.38;;;-4.18;93.87
13612;BME280;6877;51.436;6.774;2023-03-01T05:46:55;102440.66;;;-4.25;93.87
13612;BME280;6877;51.436;6.774;2023-03-01T05:49:29;102437.66;;;-4.31;94.28
13612;BME280;6877;51.436;6.774;2023-03-01T05:52:01;102438.13;;;-4.37;94.46
13612;BME280;6877;51.436;6.774;2023-03-01T05:54:27;102442.91;;;-4.42;94.62
13612;BME280;6877;51.436;6.774;2023-03-01T05:56:54;102439.59;;;-4.40;94.62
13612;BME280;6877;51.436;6.774;2023-03-01T05:59:20;102442.91;;;-4.42;94.98
13612;BME280;6877;51.436;6.774;2023-03-01T06:01:46;102447.34;;;-4.39;94.91
13612;BME280;6877;51.436;6.774;2023-03-01T06:04:13;102452.44;;;-4.39;95.18
13612;BME280;6877;51.436;6.774;2023-03-01T06:06:39;102456.91;;;-4.36;95.00
13612;BME280;6877;51.436;6.774;2023-03-01T06:09:06;102456.31;;;-4.32;94.65
13612;BME280;6877;51.436;6.774;2023-03-01T06:11:38;102450.31;;;-4.33;94.94
13612;BME280;6877;51.436;6.774;2023-03-01T06:14:06;102454.19;;;-4.26;94.68
13612;BME280;6877;51.436;6.774;2023-03-01T06:16:38;102433.28;;;-4.21;94.12
13612;BME280;6877;51.436;6.774;2023-03-01T06:19:10;102435.56;;;-4.12;93.53
13612;BME280;6877;51.436;6.774;2023-03-01T06:21:41;102428.88;;;-4.10;93.30
13612;BME280;6877;51.436;6.774;2023-03-01T06:24:08;102435.00;;;-4.08;93.25
13612;BME280;6877;51.436;6.774;2023-03-01T06:26:40;102429.09;;;-4.07;92.82
13612;BME280;6877;51.436;6.774;2023-03-01T06:29:06;102423.75;;;-4.10;92.71
13612;BME280;6877;51.436;6.774;2023-03-01T06:31:39;102424.75;;;-4.08;93.08
13612;BME280;6877;51.436;6.774;2023-03-01T06:34:06;102435.53;;;-4.00;92.85
13612;BME280;6877;51.436;6.774;2023-03-01T06:36:32;102434.34;;;-3.92;92.75
13612;BME280;6877;51.436;6.774;2023-03-01T06:38:58;102433.00;;;-3.87;92.13
13612;BME280;6877;51.436;6.774;2023-03-01T06:41:25;102424.16;;;-3.79;91.56
13612;BME280;6877;51.436;6.774;2023-03-01T06:43:56;102421.44;;;-3.68;90.47
13612;BME280;6877;51.436;6.774;2023-03-01T06:46:23;102422.41;;;-3.66;90.39
13612;BME280;6877;51.436;6.774;2023-03-01T06:48:49;102418.97;;;-3.67;90.42
13612;BME280;6877;51.436;6.774;2023-03-01T06:51:16;102429.00;;;-3.57;89.73
13612;BME280;6877;51.436;6.774;2023-03-01T06:53:42;102433.25;;;-3.57;89.89
13612;BME280;6877;51.436;6.774;2023-03-01T06:56:13;102433.03;;;-3.60;89.78
13612;BME280;6877;51.436;6.774;2023-03-01T06:58:45;102434.13;;;-3.57;90.10
13612;BME280;6877;51.436;6.774;2023-03-01T07:01:11;102435.94;;;-3.56;89.63
13612;BME280;6877;51.436;6.774;2023-03-01T07:03:42;102430.22;;;-3.52;89.58
13612;BME280;6877;51.436;6.774;2023-03-01T07:06:10;102424.50;;;-3.47;89.40
13612;BME280;6877;51.436;6.774;2023-03-01T07:08:36;102428.94;;;-3.45;89.29
13612;BME280;6877;51.436;6.774;2023-03-01T07:11:03;102432.09;;;-3.36;88.96
13612;BME280;6877;51.436;6.774;2023-03-01T07:13:35;102430.13;;;-3.27;88.34
13612;BME280;6877;51.436;6.774;2023-03-01T07:16:01;102430.41;;;-3.22;88.02
13612;BME280;6877;51.436;6.774;2023-03-01T07:18:27;102437.53;;;-3.18;88.11
13612;BME280;6877;51.436;6.774;2023-03-01T07:20:54;102438.00;;;-3.10;87.59
13612;BME280;6877;51.436;6.774;2023-03-01T07:23:25;102435.03;;;-3.03;87.20
13612;BME280;6877;51.436;6.774;2023-03-01T07:25:53;102428.53;;;-2.98;86.78
13612;BME280;6877;51.436;6.774;2023-03-01T07:28:21;102432.28;;;-2.93;86.80
13612;BME280;6877;51.436;6.774;2023-03-01T07:30:48;102431.56;;;-2.90;86.66
13612;BME280;6877;51.436;6.774;2023-03-01T07:33:20;102427.03;;;-2.81;86.17
13612;BME280;6877;51.436;6.774;2023-03-01T07:35:46;102438.47;;;-2.76;86.02
13612;BME280;6877;51.436;6.774;2023-03-01T07:38:17;102427.59;;;-2.72;86.09
13612;BME280;6877;51.436;6.774;2023-03-01T07:40:44;102428.97;;;-2.64;85.40
13612;BME280;6877;51.436;6.774;2023-03-01T07:43:10;102419.09;;;-2.58;85.25
13612;BME280;6877;51.436;6.774;2023-03-01T07:45:41;102428.94;;;-2.50;84.91
13612;BME280;6877;51.436;6.774;2023-03-01T07:48:13;102430.38;;;-2.41;84.34
13612;BME280;6877;51.436;6.774;2023-03-01T07:50:44;102420.41;;;-2.36;83.87
13612;BME280;6877;51.436;6.774;2023-03-01T07:53:11;102418.56;;;-2.24;83.53
13612;BME280;6877;51.436;6.774;2023-03-01T07:55:42;102419.84;;;-2.17;82.89
13612;BME280;6877;51.436;6.774;2023-03-01T07:58:08;102426.22;;;-2.11;82.63
13612;BME280;6877;51.436;6.774;2023-03-01T08:00:35;102423.03;;;-2.06;82.07
13612;BME280;6877;51.436;6.774;2023-03-01T08:03:01;102419.34;;;-1.97;81.98
13612;BME280;6877;51.436;6.774;2023-03-01T08:05:33;102423.31;;;-1.87;81.29
13612;BME280;6877;51.436;6.774;2023-03-01T08:07:59;102432.38;;;-1.79;80.93
13612;BME280;6877;51.436;6.774;2023-03-01T08:10:31;102429.41;;;-1.11;79.13
13612;BME280;6877;51.436;6.774;2023-03-01T08:13:02;102438.19;;;1.47;73.33
13612;BME280;6877;51.436;6.774;2023-03-01T08:15:34;102425.06;;;4.75;59.58
13612;BME280;6877;51.436;6.774;2023-03-01T08:18:05;102421.34;;;7.60;50.03
13612;BME280;6877;51.436;6.774;2023-03-01T08:20:32;102414.78;;;9.37;43.85
13612;BME280;6877;51.436;6.774;2023-03-01T08:23:04;102419.19;;;11.37;38.94
13612;BME280;6877;51.436;6.774;2023-03-01T08:25:30;102409.88;;;12.16;36.12
13612;BME280;6877;51.436;6.774;2023-03-01T08:27:56;102418.56;;;13.10;33.88
13612;BME280;6877;51.436;6.774;2023-03-01T08:30:28;102416.44;;;14.04;31.36
13612;BME280;6877;51.436;6.774;2023-03-01T08:32:54;102407.31;;;14.57;29.96
13612;BME280;6877;51.436;6.774;2023-03-01T08:35:26;102404.81;;;14.36;30.31
13612;BME280;6877;51.436;6.774;2023-03-01T08:37:57;102394.78;;;13.56;30.58
13612;BME280;6877;51.436;6.774;2023-03-01T08:40:23;102400.00;;;14.87;28.97
13612;BME280;6877;51.436;6.774;2023-03-01T08:42:55;102402.53;;;15.72;26.96
13612;BME280;6877;51.436;6.774;2023-03-01T08:45:21;102398.66;;;16.52;26.66
13612;BME280;6877;51.436;6.774;2023-03-01T08:47:53;102398.81;;;15.85;26.38
13612;BME280;6877;51.436;6.774;2023-03-01T08:50:19;102391.63;;;15.96;26.36
13612;BME280;6877;51.436;6.774;2023-03-01T08:52:51;102391.72;;;15.89;26.44
13612;BME280;6877;51.436;6.774;2023-03-01T08:55:22;102387.88;;;15.46;26.77
13612;BME280;6877;51.436;6.774;2023-03-01T08:57:48;102393.25;;;15.40;26.48
13612;BME280;6877;51.436;6.774;2023-03-01T09:00:15;102387.44;;;14.12;27.62
13612;BME280;6877;51.436;6.774;2023-03-01T09:02:41;102387.75;;;13.63;28.28
13612;BME280;6877;51.436;6.774;2023-03-01T09:05:13;102387.91;;;13.11;28.60
13612;BME280;6877;51.436;6.774;2023-03-01T09:07:44;102391.94;;;13.98;28.56
13612;BME280;6877;51.436;6.774;2023-03-01T09:10:16;102383.94;;;14.10;27.90
13612;BME280;6877;51.436;6.774;2023-03-01T09:12:42;102387.03;;;13.26;28.68
13612;BME280;6877;51.436;6.774;2023-03-01T09:15:14;102381.59;;;13.65;28.34
13612;BME280;6877;51.436;6.774;2023-03-01T09:17:40;102378.81;;;13.88;28.21
13612;BME280;6877;51.436;6.774;2023-03-01T09:20:11;102377.38;;;13.14;28.53
13612;BME280;6877;51.436;6.774;2023-03-01T09:22:38;102374.13;;;14.32;27.95
13612;BME280;6877;51.436;6.774;2023-03-01T09:25:05;102378.41;;;14.44;26.62
13612;BME280;6877;51.436;6.774;2023-03-01T09:27:36;102376.00;;;14.16;26.85
13612;BME280;6877;51.436;6.774;2023-03-01T09:30:08;102382.34;;;13.87;27.40
13612;BME280;6877;51.436;6.774;2023-03-01T09:32:35;102375.22;;;14.02;27.46
13612;BME280;6877;51.436;6.774;2023-03-01T09:35:01;102376.50;;;13.13;27.87
13612;BME280;6877;51.436;6.774;2023-03-01T09:37:36;102368.69;;;12.92;28.19
13612;BME280;6877;51.436;6.774;2023-03-01T09:40:14;102352.75;;;13.50;27.78
13612;BME280;6877;51.436;6.774;2023-03-01T09:45:34;102354.34;;;13.74;27.33
13612;BME280;6877;51.436;6.774;2023-03-01T09:48:03;102347.41;;;13.65;27.10
13612;BME280;6877;51.436;6.774;2023-03-01T09:50:36;102355.47;;;13.29;27.78
13612;BME280;6877;51.436;6.774;2023-03-01T09:53:16;102352.97;;;12.75;28.26
13612;BME280;6877;51.436;6.774;2023-03-01T09:55:54;102341.63;;;12.32;29.02
13612;BME280;6877;51.436;6.774;2023-03-01T10:03:54;102341.22;;;13.70;27.75
13612;BME280;6877;51.436;6.774;2023-03-01T10:06:29;102342.84;;;14.91;26.40
13612;BME280;6877;51.436;6.774;2023-03-01T10:09:06;102341.63;;;15.21;25.50
13612;BME280;6877;51.436;6.774;2023-03-01T10:11:45;102351.34;;;14.25;26.62
13612;BME280;6877;51.436;6.774;2023-03-01T10:14:35;102340.88;;;15.76;25.02
13612;BME280;6877;51.436;6.774;2023-03-01T10:19:42;102335.63;;;14.19;25.86
13612;BME280;6877;51.436;6.774;2023-03-01T10:24:41;102328.47;;;14.33;25.90
13612;BME280;6877;51.436;6.774;2023-03-01T10:27:19;102330.34;;;15.08;25.05
13612;BME280;6877;51.436;6.774;2023-03-01T10:30:05;102312.66;;;15.16;24.57
13612;BME280;6877;51.436;6.774;2023-03-01T10:32:43;102316.50;;;13.92;25.86
13612;BME280;6877;51.436;6.774;2023-03-01T10:35:27;102301.13;;;13.31;26.95
13612;BME280;6877;51.436;6.774;2023-03-01T10:38:13;102290.03;;;14.10;26.30
13612;BME280;6877;51.436;6.774;2023-03-01T10:40:56;102293.06;;;13.55;26.54
13612;BME280;6877;51.436;6.774;2023-03-01T10:43:24;102304.84;;;12.50;28.00
13612;BME280;6877;51.436;6.774;2023-03-01T10:45:52;102294.38;;;12.38;28.30
13612;BME280;6877;51.436;6.774;2023-03-01T10:48:23;102281.16;;;12.76;27.87
13612;BME280;6877;51.436;6.774;2023-03-01T10:56:12;102274.09;;;12.93;26.95
13612;BME280;6877;51.436;6.774;2023-03-01T10:59:00;102280.31;;;12.65;27.52
13612;BME280;6877;51.436;6.774;2023-03-01T11:01:34;102281.19;;;12.64;27.60
13612;BME280;6877;51.436;6.774;2023-03-01T11:06:40;102272.03;;;13.57;26.16
13612;BME280;6877;51.436;6.774;2023-03-01T11:09:17;102269.66;;;13.06;26.21
13612;BME280;6877;51.436;6.774;2023-03-01T11:11:45;102265.50;;;12.36;26.73
13612;BME280;6877;51.436;6.774;2023-03-01T11:16:45;102250.47;;;12.83;26.57
13612;BME280;6877;51.436;6.774;2023-03-01T11:22:12;102259.91;;;8.18;33.35
13612;BME280;6877;51.436;6.774;2023-03-01T11:24:42;102253.41;;;6.56;37.00
13612;BME280;6877;51.436;6.774;2023-03-01T11:27:19;102261.41;;;5.58;39.14
13612;BME280;6877;51.436;6.774;2023-03-01T11:30:05;102256.25;;;5.28;40.44
13612;BME280;6877;51.436;6.774;2023-03-01T11:32:43;102246.06;;;5.04;40.39
13612;BME280;6877;51.436;6.774;2023-03-01T11:35:23;102244.66;;;4.85;42.08
13612;BME280;6877;51.436;6.774;2023-03-01T11:40:55;102235.44;;;4.64;41.57
13612;BME280;6877;51.436;6.774;2023-03-01T11:52:21;102250.41;;;4.73;43.18
13612;BME280;6877;51.436;6.774;2023-03-01T11:55:08;102247.84;;;4.75;43.36
13612;BME280;6877;51.436;6.774;2023-03-01T12:06:10;102240.44;;;4.58;42.98
13612;BME280;6877;51.436;6.774;2023-03-01T12:09:27;102236.78;;;4.52;43.34
13612;BME280;6877;51.436;6.774;2023-03-01T12:14:44;102215.75;;;4.71;43.23
13612;BME280;6877;51.436;6.774;2023-03-01T12:18:16;102212.41;;;4.75;43.10
13612;BME280;6877;51.436;6.774;2023-03-01T12:28:55;102210.06;;;4.83;42.53
13612;BME280;6877;51.436;6.774;2023-03-01T12:37:25;102187.25;;;5.03;43.23
13612;BME280;6877;51.436;6.774;2023-03-01T12:48:24;102176.66;;;5.27;42.84
13612;BME280;6877;51.436;6.774;2023-03-01T12:50:59;102173.38;;;5.34;43.07
13612;BME280;6877;51.436;6.774;2023-03-01T12:53:40;102172.91;;;5.50;42.90
13612;BME280;6877;51.436;6.774;2023-03-01T12:56:28;102166.00;;;5.51;42.22
13612;BME280;6877;51.436;6.774;2023-03-01T12:59:09;102157.53;;;5.58;42.43
13612;BME280;6877;51.436;6.774;2023-03-01T13:04:43;102150.06;;;5.72;41.64
13612;BME280;6877;51.436;6.774;2023-03-01T13:11:00;102150.41;;;5.51;41.93
13612;BME280;6877;51.436;6.774;2023-03-01T13:13:19;102153.00;;;5.51;42.00
13612;BME280;6877;51.436;6.774;2023-03-01T13:15:52;102155.69;;;5.54;41.90
13612;BME280;6877;51.436;6.774;2023-03-01T13:20:53;102143.56;;;5.53;41.88
13612;BME280;6877;51.436;6.774;2023-03-01T13:31:03;102139.06;;;5.46;41.32
13612;BME280;6877;51.436;6.774;2023-03-01T13:39:00;102114.47;;;5.68;41.32
13612;BME280;6877;51.436;6.774;2023-03-01T13:44:32;102122.06;;;5.60;41.34
13612;BME280;6877;51.436;6.774;2023-03-01T13:47:07;102107.19;;;5.53;41.53
13612;BME280;6877;51.436;6.774;2023-03-01T13:49:49;102109.09;;;5.60;41.61
13612;BME280;6877;51.436;6.774;2023-03-01T13:54:52;102102.28;;;5.65;41.10
13612;BME280;6877;51.436;6.774;2023-03-01T13:57:23;102100.44;;;5.61;41.27
13612;BME280;6877;51.436;6.774;2023-03-01T13:59:57;102104.63;;;5.54;41.13
13612;BME280;6877;51.436;6.774;2023-03-01T14:02:28;102088.09;;;5.51;41.19
13612;BME280;6877;51.436;6.774;2023-03-01T14:04:59;102092.50;;;5.53;40.71
13612;BME280;6877;51.436;6.774;2023-03-01T14:07:27;102076.84;;;5.50;40.98
13612;BME280;6877;51.436;6.774;2023-03-01T14:10:03;102082.03;;;5.50;41.80
13612;BME280;6877;51.436;6.774;2023-03-01T14:13:00;102079.66;;;5.61;41.90
13612;BME280;6877;51.436;6.774;2023-03-01T14:15:41;102067.69;;;5.66;42.00
13612;BME280;6877;51.436;6.774;2023-03-01T14:18:21;102077.34;;;5.72;41.68
13612;BME280;6877;51.436;6.774;2023-03-01T14:20:57;102075.53;;;5.68;41.92
13612;BME280;6877;51.436;6.774;2023-03-01T14:23:24;102081.38;;;5.59;42.24
13612;BME280;6877;51.436;6.774;2023-03-01T14:25:57;102070.00;;;5.54;42.41
13612;BME280;6877;51.436;6.774;2023-03-01T14:28:32;102064.06;;;5.58;42.55
13612;BME280;6877;51.436;6.774;2023-03-01T14:31:03;102062.53;;;5.68;42.43
13612;BME280;6877;51.436;6.774;2023-03-01T14:33:56;102047.91;;;5.71;42.10
13612;BME280;6877;51.436;6.774;2023-03-01T14:36:30;102064.44;;;5.76;42.33
13612;BME280;6877;51.436;6.774;2023-03-01T14:38:58;102056.63;;;5.75;42.24
13612;BME280;6877;51.436;6.774;2023-03-01T14:41:33;102038.31;;;5.70;42.32
13612;BME280;6877;51.436;6.774;2023-03-01T14:44:05;102025.31;;;5.69;42.77
13612;BME280;6877;51.436;6.774;2023-03-01T14:46:39;102034.91;;;5.71;42.89
13612;BME280;6877;51.436;6.774;2023-03-01T14:49:21;102038.50;;;5.78;42.83
13612;BME280;6877;51.436;6.774;2023-03-01T14:51:57;102040.19;;;5.76;42.61
13612;BME280;6877;51.436;6.774;2023-03-01T14:54:41;102035.72;;;5.69;43.03
13612;BME280;6877;51.436;6.774;2023-03-01T14:57:16;102033.00;;;5.64;42.68
13612;BME280;6877;51.436;6.774;2023-03-01T14:59:43;102031.44;;;5.71;42.96
13612;BME280;6877;51.436;6.774;2023-03-01T15:02:17;102032.19;;;5.67;43.05
13612;BME280;6877;51.436;6.774;2023-03-01T15:04:47;102030.31;;;5.60;43.66
13612;BME280;6877;51.436;6.774;2023-03-01T15:07:15;102026.84;;;5.61;44.00
13612;BME280;6877;51.436;6.774;2023-03-01T15:09:42;102036.44;;;5.63;44.36
13612;BME280;6877;51.436;6.774;2023-03-01T15:15:00;102020.59;;;5.51;44.44
13612;BME280;6877;51.436;6.774;2023-03-01T15:17:37;102021.44;;;5.50;44.98
13612;BME280;6877;51.436;6.774;2023-03-01T15:20:14;102013.72;;;5.53;44.38
13612;BME280;6877;51.436;6.774;2023-03-01T15:22:48;102009.31;;;5.50;44.04